createdAt,value
2024-04-18T00:00:28.594Z,51.185818
2024-04-18T00:01:28.654Z,51.185955
2024-04-18T00:02:28.560Z,51.185875
2024-04-18T00:03:28.722Z,51.185669
2024-04-18T00:04:28.686Z,51.185528
2024-04-18T00:05:28.575Z,51.185963
2024-04-18T00:06:28.533Z,51.185818
2024-04-18T00:07:28.557Z,51.186310
2024-04-18T00:08:28.519Z,51.186016
2024-04-18T00:09:28.526Z,51.185970
2024-04-18T00:10:28.567Z,51.186043
2024-04-18T00:11:28.465Z,51.185959
2024-04-18T00:12:28.495Z,51.185879
2024-04-18T00:13:28.497Z,51.185833
2024-04-18T00:14:28.482Z,51.185940
2024-04-18T00:15:28.605Z,51.185818
2024-04-18T00:16:28.463Z,51.185928
2024-04-18T00:17:28.522Z,51.186020
2024-04-18T00:18:28.552Z,51.185913
2024-04-18T00:19:28.432Z,51.185925
2024-04-18T00:20:28.474Z,51.185711
2024-04-18T00:21:28.437Z,51.185673
2024-04-18T00:22:28.451Z,51.185699
2024-04-18T00:23:28.484Z,51.185692
2024-04-18T00:24:28.447Z,51.185692
2024-04-18T00:25:28.404Z,51.185692
2024-04-18T00:26:28.375Z,51.185688
2024-04-18T00:27:28.388Z,51.185665
2024-04-18T00:28:28.388Z,51.185528
2024-04-18T00:29:28.360Z,51.185528
2024-04-18T00:30:28.388Z,51.185574
2024-04-18T00:31:28.369Z,51.185745
2024-04-18T00:32:28.687Z,51.185745
2024-04-18T00:33:28.535Z,51.185604
2024-04-18T00:34:28.358Z,51.185654
2024-04-18T00:35:28.341Z,51.185776
2024-04-18T00:36:28.358Z,51.185688
2024-04-18T00:37:28.311Z,51.185814
2024-04-18T00:38:28.404Z,51.185753
2024-04-18T00:39:28.348Z,51.185654
2024-04-18T00:40:28.652Z,51.185616
2024-04-18T00:41:28.398Z,51.185768
2024-04-18T00:42:28.329Z,51.185898
2024-04-18T00:43:28.265Z,51.185791
2024-04-18T00:44:28.532Z,51.185684
2024-04-18T00:45:28.456Z,51.185707
2024-04-18T00:46:28.338Z,51.185764
2024-04-18T00:47:28.302Z,51.185783
2024-04-18T00:48:28.379Z,51.185787
2024-04-18T00:49:28.279Z,51.185783
2024-04-18T00:50:28.277Z,51.185837
2024-04-18T00:51:28.328Z,51.185776
2024-04-18T00:52:28.288Z,51.185791
2024-04-18T00:53:28.191Z,51.185875
2024-04-18T00:54:28.199Z,51.185886
2024-04-18T00:55:28.196Z,51.185764
2024-04-18T00:56:28.209Z,51.185795
2024-04-18T00:57:28.174Z,51.185726
2024-04-18T00:58:28.247Z,51.185688
2024-04-18T00:59:28.173Z,51.185806
2024-04-18T01:00:28.215Z,51.185867
2024-04-18T01:01:28.217Z,51.185925
2024-04-18T01:02:28.253Z,51.185848
2024-04-18T01:03:28.261Z,51.185688
2024-04-18T01:04:28.281Z,51.185863
2024-04-18T01:05:28.112Z,51.185814
2024-04-18T01:06:28.197Z,51.185757
2024-04-18T01:07:28.101Z,51.185898
2024-04-18T01:08:28.112Z,51.185844
2024-04-18T01:09:28.109Z,51.185795
2024-04-18T01:10:28.215Z,51.185810
2024-04-18T01:11:28.140Z,51.185986
2024-04-18T01:12:28.106Z,51.185841
2024-04-18T01:13:28.142Z,51.185940
2024-04-18T01:14:28.131Z,51.185825
2024-04-18T01:15:28.162Z,51.185806
2024-04-18T01:16:28.133Z,51.185940
2024-04-18T01:17:28.225Z,51.185795
2024-04-18T01:18:28.106Z,51.185974
2024-04-18T01:19:28.086Z,51.185661
2024-04-18T01:20:28.008Z,51.185814
2024-04-18T01:21:28.075Z,51.185944
2024-04-18T01:22:28.029Z,51.185822
2024-04-18T01:23:28.017Z,51.185780
2024-04-18T01:24:28.118Z,51.185783
2024-04-18T01:25:27.983Z,51.185799
2024-04-18T01:26:27.990Z,51.185814
2024-04-18T01:27:27.970Z,51.185822
2024-04-18T01:28:28.004Z,51.185932
2024-04-18T01:29:28.300Z,51.186001
2024-04-18T01:30:28.287Z,51.185898
2024-04-18T01:31:27.954Z,51.185814
2024-04-18T01:32:27.985Z,51.185818
2024-04-18T01:33:27.997Z,51.185829
2024-04-18T01:34:28.289Z,51.185802
2024-04-18T01:35:27.960Z,51.185795
2024-04-18T01:36:27.974Z,51.185829
2024-04-18T01:37:27.958Z,51.185772
2024-04-18T01:38:27.894Z,51.185822
2024-04-18T01:39:27.952Z,51.185844
2024-04-18T01:40:28.665Z,51.185860
2024-04-18T01:41:27.880Z,51.185890
2024-04-18T01:42:28.062Z,51.185852
2024-04-18T01:43:27.860Z,51.185890
2024-04-18T01:44:27.916Z,51.185829
2024-04-18T01:45:27.973Z,51.185810
2024-04-18T01:46:27.888Z,51.185780
2024-04-18T01:47:27.906Z,51.185810
2024-04-18T01:48:28.138Z,51.185776
2024-04-18T01:49:28.031Z,51.185875
2024-04-18T01:50:27.821Z,51.185860
2024-04-18T01:51:27.861Z,51.185814
2024-04-18T01:52:27.859Z,51.185822
2024-04-18T01:53:27.798Z,51.185795
2024-04-18T01:54:27.870Z,51.185833
2024-04-18T01:55:27.829Z,51.185886
2024-04-18T01:56:27.787Z,51.185802
2024-04-18T01:57:27.799Z,51.185833
2024-04-18T01:58:27.808Z,51.185844
2024-04-18T01:59:27.753Z,51.185810
2024-04-18T02:00:27.838Z,51.185863
2024-04-18T02:01:27.806Z,51.185867
2024-04-18T02:02:27.745Z,51.185619
2024-04-18T02:03:28.066Z,51.185570
2024-04-18T02:04:28.565Z,51.185669
2024-04-18T02:05:27.736Z,51.185768
2024-04-18T02:06:27.765Z,51.185989
2024-04-18T02:07:27.746Z,51.185978
2024-04-18T02:08:27.735Z,51.185886
2024-04-18T02:09:27.777Z,51.185925
2024-04-18T02:10:27.719Z,51.185856
2024-04-18T02:11:27.734Z,51.185921
2024-04-18T02:12:27.700Z,51.185852
2024-04-18T02:13:27.714Z,51.185810
2024-04-18T02:14:27.655Z,51.185791
2024-04-18T02:15:27.760Z,51.185959
2024-04-18T02:16:27.674Z,51.185768
2024-04-18T02:17:27.721Z,51.185696
2024-04-18T02:18:27.720Z,51.185616
2024-04-18T02:19:27.638Z,51.185482
2024-04-18T02:20:27.677Z,51.185703
2024-04-18T02:21:27.684Z,51.185951
2024-04-18T02:22:27.677Z,51.185787
2024-04-18T02:23:27.750Z,51.185730
2024-04-18T02:24:27.696Z,51.185230
2024-04-18T02:25:27.633Z,51.185253
2024-04-18T02:26:27.584Z,51.185539
2024-04-18T02:27:27.592Z,51.185631
2024-04-18T02:28:27.561Z,51.185547
2024-04-18T02:29:27.759Z,51.185558
2024-04-18T02:30:27.950Z,51.185680
2024-04-18T02:31:27.542Z,51.185650
2024-04-18T02:32:27.654Z,51.185764
2024-04-18T02:33:27.553Z,51.185894
2024-04-18T02:34:27.549Z,51.185879
2024-04-18T02:35:27.531Z,51.185902
2024-04-18T02:36:27.525Z,51.185627
2024-04-18T02:37:27.507Z,51.185474
2024-04-18T02:38:27.514Z,51.185612
2024-04-18T02:39:27.528Z,51.185699
2024-04-18T02:40:27.874Z,51.185638
2024-04-18T02:41:27.492Z,51.186012
2024-04-18T02:42:27.589Z,51.185879
2024-04-18T02:43:27.468Z,51.185818
2024-04-18T02:44:27.668Z,51.185863
2024-04-18T02:45:27.531Z,51.185524
2024-04-18T02:46:27.502Z,51.185654
2024-04-18T02:47:27.807Z,51.185711
2024-04-18T02:48:27.512Z,51.185371
2024-04-18T02:49:27.427Z,51.185307
2024-04-18T02:50:27.476Z,51.185204
2024-04-18T02:51:27.461Z,51.185764
2024-04-18T02:52:27.433Z,51.185776
2024-04-18T02:53:27.408Z,51.185799
2024-04-18T02:54:27.424Z,51.185921
2024-04-18T02:55:27.689Z,51.185898
2024-04-18T02:56:27.546Z,51.185852
2024-04-18T02:57:27.436Z,51.185886
2024-04-18T02:58:27.403Z,51.185757
2024-04-18T02:59:27.570Z,51.185711
2024-04-18T03:00:27.469Z,51.185711
2024-04-18T03:01:27.442Z,51.185905
2024-04-18T03:02:27.614Z,51.185955
2024-04-18T03:03:27.405Z,51.185848
2024-04-18T03:04:27.409Z,51.185764
2024-04-18T03:05:27.386Z,51.185726
2024-04-18T03:06:27.438Z,51.185726
2024-04-18T03:07:27.376Z,51.185852
2024-04-18T03:08:27.325Z,51.185898
2024-04-18T03:09:27.463Z,51.185745
2024-04-18T03:10:27.293Z,51.185856
2024-04-18T03:11:27.337Z,51.185795
2024-04-18T03:12:27.329Z,51.185669
2024-04-18T03:13:27.306Z,51.185493
2024-04-18T03:14:27.283Z,51.185741
2024-04-18T03:15:27.294Z,51.185722
2024-04-18T03:16:27.250Z,51.185684
2024-04-18T03:17:27.317Z,51.185822
2024-04-18T03:18:27.391Z,51.185932
2024-04-18T03:19:27.281Z,51.185894
2024-04-18T03:20:27.243Z,51.185867
2024-04-18T03:21:27.282Z,51.185795
2024-04-18T03:22:27.462Z,51.185921
2024-04-18T03:23:27.234Z,51.185913
2024-04-18T03:24:27.229Z,51.185848
2024-04-18T03:25:27.197Z,51.185883
2024-04-18T03:26:27.220Z,51.185818
2024-04-18T03:27:27.313Z,51.185772
2024-04-18T03:28:27.191Z,51.185837
2024-04-18T03:29:27.173Z,51.185909
2024-04-18T03:30:27.244Z,51.185753
2024-04-18T03:31:27.192Z,51.185951
2024-04-18T03:32:27.399Z,51.185886
2024-04-18T03:33:27.191Z,51.185951
2024-04-18T03:34:27.132Z,51.185837
2024-04-18T03:35:27.178Z,51.185902
2024-04-18T03:36:27.170Z,51.185837
2024-04-18T03:37:27.154Z,51.185959
2024-04-18T03:38:27.103Z,51.185856
2024-04-18T03:39:27.160Z,51.185917
2024-04-18T03:40:27.204Z,51.186058
2024-04-18T03:41:27.107Z,51.185951
2024-04-18T03:42:27.261Z,51.185917
2024-04-18T03:43:27.378Z,51.186024
2024-04-18T03:44:27.085Z,51.185787
2024-04-18T03:45:27.095Z,51.185780
2024-04-18T03:46:27.049Z,51.185726
2024-04-18T03:47:27.076Z,51.185658
2024-04-18T03:48:27.260Z,51.185677
2024-04-18T03:49:27.079Z,51.185722
2024-04-18T03:50:27.051Z,51.185749
2024-04-18T03:51:27.028Z,51.185795
2024-04-18T03:52:27.042Z,51.185757
2024-04-18T03:53:27.041Z,51.185707
2024-04-18T03:54:27.090Z,51.185707
2024-04-18T03:55:27.168Z,51.185734
2024-04-18T03:56:26.987Z,51.185734
2024-04-18T03:57:27.055Z,51.185726
2024-04-18T03:58:27.251Z,51.185757
2024-04-18T03:59:27.407Z,51.185780
2024-04-18T04:00:27.054Z,51.185734
2024-04-18T04:01:27.251Z,51.185776
2024-04-18T04:02:26.961Z,51.185814
2024-04-18T04:03:26.991Z,51.185844
2024-04-18T04:04:27.068Z,51.185844
2024-04-18T04:05:26.911Z,51.185833
2024-04-18T04:06:26.976Z,51.185852
2024-04-18T04:07:26.958Z,51.185860
2024-04-18T04:08:26.924Z,51.185806
2024-04-18T04:09:26.994Z,51.185753
2024-04-18T04:10:26.879Z,51.185833
2024-04-18T04:11:26.957Z,51.185822
2024-04-18T04:12:26.997Z,51.185860
2024-04-18T04:13:27.107Z,51.185867
2024-04-18T04:14:26.915Z,51.185856
2024-04-18T04:15:26.934Z,51.185825
2024-04-18T04:16:26.863Z,51.185833
2024-04-18T04:17:26.880Z,51.185871
2024-04-18T04:18:27.025Z,51.185867
2024-04-18T04:19:27.121Z,51.185837
2024-04-18T04:20:26.832Z,51.185833
2024-04-18T04:21:26.963Z,51.185844
2024-04-18T04:22:27.877Z,51.185856
2024-04-18T04:23:26.812Z,51.185837
2024-04-18T04:24:26.873Z,51.185848
2024-04-18T04:25:26.781Z,51.185879
2024-04-18T04:26:26.803Z,51.185913
2024-04-18T04:27:26.828Z,51.185860
2024-04-18T04:28:26.817Z,51.185852
2024-04-18T04:29:26.757Z,51.185825
2024-04-18T04:30:26.828Z,51.185822
2024-04-18T04:31:26.753Z,51.185799
2024-04-18T04:32:26.811Z,51.185829
2024-04-18T04:33:26.759Z,51.185802
2024-04-18T04:34:26.778Z,51.186020
2024-04-18T04:35:26.729Z,51.185898
2024-04-18T04:36:26.773Z,51.185749
2024-04-18T04:37:26.985Z,51.185867
2024-04-18T04:38:26.707Z,51.185795
2024-04-18T04:39:26.729Z,51.185684
2024-04-18T04:40:26.885Z,51.185833
2024-04-18T04:41:26.706Z,51.185730
2024-04-18T04:42:26.746Z,51.185638
2024-04-18T04:43:26.716Z,51.185841
2024-04-18T04:44:26.748Z,51.185863
2024-04-18T04:45:26.673Z,51.185860
2024-04-18T04:46:26.716Z,51.185966
2024-04-18T04:47:26.700Z,51.185829
2024-04-18T04:48:26.739Z,51.185818
2024-04-18T04:49:26.770Z,51.185825
2024-04-18T04:50:26.617Z,51.185814
2024-04-18T04:51:26.665Z,51.185768
2024-04-18T04:52:26.602Z,51.185883
2024-04-18T04:53:26.603Z,51.185822
2024-04-18T04:54:26.854Z,51.185799
2024-04-18T04:55:26.619Z,51.185772
2024-04-18T04:56:26.615Z,51.185741
2024-04-18T04:57:26.610Z,51.185795
2024-04-18T04:58:26.598Z,51.185848
2024-04-18T04:59:26.556Z,51.185860
2024-04-18T05:00:26.672Z,51.185822
2024-04-18T05:01:26.613Z,51.185757
2024-04-18T05:02:26.576Z,51.185875
2024-04-18T05:03:26.622Z,51.185772
2024-04-18T05:04:26.566Z,51.185940
2024-04-18T05:05:26.542Z,51.185791
2024-04-18T05:06:26.617Z,51.185879
2024-04-18T05:07:26.549Z,51.185848
2024-04-18T05:08:26.530Z,51.185745
2024-04-18T05:09:26.576Z,51.185814
2024-04-18T05:10:26.498Z,51.185757
2024-04-18T05:11:26.650Z,51.185734
2024-04-18T05:12:26.533Z,51.185680
2024-04-18T05:13:26.464Z,51.185875
2024-04-18T05:14:26.471Z,51.185764
2024-04-18T05:15:26.490Z,51.185684
2024-04-18T05:16:26.691Z,51.185730
2024-04-18T05:17:26.432Z,51.185730
2024-04-18T05:18:26.462Z,51.185806
2024-04-18T05:19:26.442Z,51.185757
2024-04-18T05:20:26.417Z,51.185581
2024-04-18T05:21:26.472Z,51.185772
2024-04-18T05:22:26.409Z,51.185711
2024-04-18T05:23:26.444Z,51.185604
2024-04-18T05:24:26.419Z,51.185974
2024-04-18T05:25:26.973Z,51.185974
2024-04-18T05:26:26.417Z,51.185974
2024-04-18T05:27:26.623Z,51.185795
2024-04-18T05:28:26.403Z,51.185795
2024-04-18T05:29:26.355Z,51.185783
2024-04-18T05:30:26.388Z,51.185783
2024-04-18T05:31:26.345Z,51.185783
2024-04-18T05:32:26.412Z,51.185783
2024-04-18T05:33:26.437Z,51.185783
2024-04-18T05:34:26.320Z,51.185783
2024-04-18T05:35:26.419Z,51.185783
2024-04-18T05:36:26.366Z,51.185783
2024-04-18T05:37:26.366Z,51.185783
2024-04-18T05:38:26.320Z,51.185783
2024-04-18T05:39:26.421Z,51.185783
2024-04-18T05:40:26.394Z,51.185783
2024-04-18T05:41:26.313Z,51.185783
2024-04-18T05:42:26.307Z,51.185783
2024-04-18T05:43:26.329Z,51.185783
2024-04-18T05:44:26.292Z,51.185783
2024-04-18T05:45:26.286Z,51.185783
2024-04-18T05:46:26.253Z,51.185783
2024-04-18T05:47:26.351Z,51.185707
2024-04-18T05:48:26.269Z,51.185829
2024-04-18T05:49:26.271Z,51.185810
2024-04-18T05:50:26.220Z,51.185974
2024-04-18T05:51:26.371Z,51.186062
2024-04-18T05:52:26.280Z,51.185875
2024-04-18T05:53:26.241Z,51.185795
2024-04-18T05:54:26.252Z,51.185802
2024-04-18T05:55:26.211Z,51.185802
2024-04-18T05:56:26.243Z,51.185822
2024-04-18T05:57:26.257Z,51.185810
2024-04-18T05:58:26.246Z,51.185875
2024-04-18T05:59:26.188Z,51.185799
2024-04-18T06:00:26.228Z,51.185913
2024-04-18T06:01:26.210Z,51.185738
2024-04-18T06:02:26.221Z,51.185852
2024-04-18T06:03:26.189Z,51.185879
2024-04-18T06:04:26.201Z,51.185841
2024-04-18T06:05:26.129Z,51.185730
2024-04-18T06:06:26.137Z,51.185780
2024-04-18T06:07:26.127Z,51.185810
2024-04-18T06:08:26.253Z,51.185871
2024-04-18T06:09:26.298Z,51.185917
2024-04-18T06:10:26.119Z,51.185936
2024-04-18T06:11:26.180Z,51.185806
2024-04-18T06:12:26.138Z,51.185715
2024-04-18T06:13:26.113Z,51.185673
2024-04-18T06:14:26.174Z,51.185673
2024-04-18T06:15:26.069Z,51.185673
2024-04-18T06:16:26.128Z,51.185673
2024-04-18T06:17:26.074Z,51.185673
2024-04-18T06:18:26.113Z,51.185673
2024-04-18T06:19:29.449Z,51.185673
2024-04-18T06:20:26.180Z,51.185806
2024-04-18T06:21:26.079Z,51.185677
2024-04-18T06:22:26.013Z,51.185574
2024-04-18T06:23:26.031Z,51.185734
2024-04-18T06:24:26.024Z,51.185844
2024-04-18T06:25:26.014Z,51.185921
2024-04-18T06:26:26.037Z,51.185841
2024-04-18T06:27:26.083Z,51.185833
2024-04-18T06:28:25.977Z,51.185772
2024-04-18T06:29:25.980Z,51.185833
2024-04-18T06:30:25.986Z,51.185875
2024-04-18T06:31:26.023Z,51.185940
2024-04-18T06:32:25.988Z,51.185833
2024-04-18T06:33:26.124Z,51.185715
2024-04-18T06:34:26.989Z,51.185375
2024-04-18T06:35:25.922Z,51.185726
2024-04-18T06:36:25.978Z,51.185852
2024-04-18T06:37:25.916Z,51.185825
2024-04-18T06:38:25.949Z,51.185806
2024-04-18T06:39:25.985Z,51.185928
2024-04-18T06:40:25.893Z,51.186192
2024-04-18T06:41:25.909Z,51.185997
2024-04-18T06:42:25.920Z,51.185589
2024-04-18T06:43:25.936Z,51.185650
2024-04-18T06:44:25.906Z,51.185650
2024-04-18T06:45:25.908Z,51.185650
2024-04-18T06:46:25.899Z,51.185650
2024-04-18T06:47:25.906Z,51.185650
2024-04-18T06:48:25.916Z,51.185650
2024-04-18T06:49:25.840Z,51.185650
2024-04-18T06:50:27.059Z,51.185650
2024-04-18T06:51:26.073Z,51.185650
2024-04-18T06:52:25.821Z,51.185650
2024-04-18T06:53:25.816Z,51.185650
2024-04-18T06:54:25.848Z,51.185650
2024-04-18T06:55:25.817Z,51.185650
2024-04-18T06:56:25.825Z,51.185650
2024-04-18T06:57:25.835Z,51.185650
2024-04-18T06:58:25.815Z,51.185650
2024-04-18T06:59:25.765Z,51.185650
2024-04-18T07:00:25.807Z,51.185650
2024-04-18T07:01:25.907Z,51.185650
2024-04-18T07:02:25.799Z,51.185650
2024-04-18T07:03:26.096Z,51.185650
2024-04-18T07:04:25.812Z,51.185650
2024-04-18T07:05:25.804Z,51.185650
2024-04-18T07:06:25.743Z,51.185650
2024-04-18T07:07:25.711Z,51.185650
2024-04-18T07:08:25.980Z,51.185650
2024-04-18T07:09:25.767Z,51.185650
2024-04-18T07:10:25.729Z,51.185650
2024-04-18T07:11:25.720Z,51.185650
2024-04-18T07:12:25.710Z,51.185650
2024-04-18T07:13:25.730Z,51.185650
2024-04-18T07:14:25.689Z,51.185650
2024-04-18T07:15:25.705Z,51.185650
2024-04-18T07:16:25.659Z,51.185650
2024-04-18T07:17:25.805Z,51.185650
2024-04-18T07:18:25.739Z,51.185650
2024-04-18T07:19:25.696Z,51.185650
2024-04-18T07:20:26.657Z,51.185650
2024-04-18T07:21:25.712Z,51.185650
2024-04-18T07:22:25.623Z,51.185650
2024-04-18T07:23:25.616Z,51.185650
2024-04-18T07:24:25.646Z,51.185650
2024-04-18T07:25:25.622Z,51.185650
2024-04-18T07:26:25.624Z,51.185650
2024-04-18T07:27:25.615Z,51.185650
2024-04-18T07:28:25.582Z,51.185650
2024-04-18T07:29:25.588Z,51.185730
2024-04-18T07:30:25.630Z,51.185722
2024-04-18T07:31:25.566Z,51.185696
2024-04-18T07:32:25.597Z,51.185711
2024-04-18T07:33:25.674Z,51.185699
2024-04-18T07:34:25.657Z,51.185604
2024-04-18T07:35:25.552Z,51.185837
2024-04-18T07:36:25.694Z,51.185745
2024-04-18T07:37:27.779Z,51.185917
2024-04-18T07:38:25.518Z,51.185780
2024-04-18T07:39:25.526Z,51.185764
2024-04-18T07:40:25.522Z,51.185665
2024-04-18T07:41:25.512Z,51.185680
2024-04-18T07:42:26.020Z,51.185822
2024-04-18T07:43:25.511Z,51.185890
2024-04-18T07:44:25.477Z,51.185867
2024-04-18T07:45:25.502Z,51.185837
2024-04-18T07:46:25.464Z,51.185650
2024-04-18T07:47:25.560Z,51.185509
2024-04-18T07:48:25.575Z,51.185799
2024-04-18T07:49:25.521Z,51.185638
2024-04-18T07:50:25.449Z,51.185574
2024-04-18T07:51:25.478Z,51.185368
2024-04-18T07:52:25.522Z,51.184994
2024-04-18T07:53:26.467Z,51.185219
2024-04-18T07:54:25.505Z,51.185371
2024-04-18T07:55:25.404Z,51.185352
2024-04-18T07:56:26.023Z,51.185356
2024-04-18T07:57:25.871Z,51.185448
2024-04-18T07:58:25.895Z,51.185207
2024-04-18T07:59:26.163Z,51.184959
2024-04-18T08:00:26.284Z,51.185768
2024-04-18T08:01:26.847Z,51.185730
2024-04-18T08:02:27.022Z,51.185680
2024-04-18T08:03:27.473Z,51.185749
2024-04-18T08:04:45.156Z,51.185837
2024-04-18T08:05:28.392Z,51.185806
2024-04-18T08:06:28.100Z,51.185776
2024-04-18T08:07:28.401Z,51.185886
2024-04-18T08:08:29.086Z,51.185837
2024-04-18T08:09:27.925Z,51.185791
2024-04-18T08:10:33.067Z,51.185772
2024-04-18T08:11:53.357Z,51.185875
2024-04-18T08:12:29.812Z,51.185856
2024-04-18T08:13:29.948Z,51.185860
2024-04-18T08:14:29.930Z,51.185833
2024-04-18T08:16:26.420Z,51.185715
2024-04-18T08:17:25.493Z,51.185810
2024-04-18T08:18:25.240Z,51.185768
2024-04-18T08:19:25.236Z,51.185745
2024-04-18T08:20:25.275Z,51.185780
2024-04-18T08:21:25.245Z,51.185787
2024-04-18T08:22:25.227Z,51.185856
2024-04-18T08:23:25.207Z,51.185719
2024-04-18T08:24:25.217Z,51.185974
2024-04-18T08:25:25.272Z,51.185795
2024-04-18T08:26:25.253Z,51.185879
2024-04-18T08:27:25.223Z,51.185993
2024-04-18T08:28:25.174Z,51.186039
2024-04-18T08:29:25.185Z,51.185928
2024-04-18T08:30:25.240Z,51.185917
2024-04-18T08:31:25.221Z,51.185932
2024-04-18T08:32:25.145Z,51.185902
2024-04-18T08:33:25.200Z,51.185802
2024-04-18T08:34:26.055Z,51.185787
2024-04-18T08:35:25.330Z,51.185871
2024-04-18T08:36:25.211Z,51.185852
2024-04-18T08:37:25.123Z,51.185875
2024-04-18T08:38:25.112Z,51.185997
2024-04-18T08:39:25.131Z,51.185982
2024-04-18T08:40:25.124Z,51.185764
2024-04-18T08:41:25.093Z,51.185745
2024-04-18T08:42:25.107Z,51.185772
2024-04-18T08:43:25.067Z,51.185772
2024-04-18T08:44:25.061Z,51.185802
2024-04-18T08:45:25.204Z,51.185806
2024-04-18T08:46:25.082Z,51.185829
2024-04-18T08:47:25.180Z,51.185856
2024-04-18T08:48:25.257Z,51.185909
2024-04-18T08:49:25.115Z,51.185802
2024-04-18T08:50:25.019Z,51.185825
2024-04-18T08:51:25.067Z,51.185833
2024-04-18T08:52:25.004Z,51.185768
2024-04-18T08:53:24.988Z,51.185787
2024-04-18T08:54:24.990Z,51.185783
2024-04-18T08:55:25.125Z,51.185856
2024-04-18T08:56:24.991Z,51.185787
2024-04-18T08:57:24.989Z,51.185802
2024-04-18T08:58:24.981Z,51.185780
2024-04-18T08:59:24.960Z,51.185802
2024-04-18T09:00:25.010Z,51.185818
2024-04-18T09:01:24.977Z,51.185791
2024-04-18T09:02:24.940Z,51.185783
2024-04-18T09:03:24.969Z,51.185806
2024-04-18T09:04:24.947Z,51.185810
2024-04-18T09:05:24.963Z,51.185810
2024-04-18T09:06:24.946Z,51.185856
2024-04-18T09:07:24.890Z,51.185894
2024-04-18T09:08:24.899Z,51.185844
2024-04-18T09:09:24.969Z,51.186367
2024-04-18T09:10:24.996Z,51.185867
2024-04-18T09:11:24.928Z,51.185841
2024-04-18T09:12:24.936Z,51.185738
2024-04-18T09:13:27.077Z,51.185772
2024-04-18T09:14:24.840Z,51.185791
2024-04-18T09:15:24.943Z,51.185818
2024-04-18T09:16:24.863Z,51.185787
2024-04-18T09:17:24.878Z,51.185844
2024-04-18T09:18:24.930Z,51.185810
2024-04-18T09:19:24.884Z,51.185745
2024-04-18T09:20:24.803Z,51.185787
2024-04-18T09:21:24.835Z,51.185795
2024-04-18T09:22:24.783Z,51.185764
2024-04-18T09:23:24.782Z,51.185799
2024-04-18T09:24:24.830Z,51.185829
2024-04-18T09:25:24.810Z,51.185795
2024-04-18T09:26:24.759Z,51.185799
2024-04-18T09:27:24.783Z,51.185764
2024-04-18T09:28:24.750Z,51.185791
2024-04-18T09:29:24.736Z,51.185799
2024-04-18T09:30:24.807Z,51.185780
2024-04-18T09:31:31.063Z,51.185783
2024-04-18T09:32:25.742Z,51.185898
2024-04-18T09:33:24.956Z,51.185848
2024-04-18T09:34:24.816Z,51.185822
2024-04-18T09:35:24.735Z,51.185776
2024-04-18T09:36:24.741Z,51.185764
2024-04-18T09:37:24.687Z,51.185814
2024-04-18T09:38:24.673Z,51.185806
2024-04-18T09:39:24.684Z,51.185791
2024-04-18T09:40:24.689Z,51.185806
2024-04-18T09:41:24.715Z,51.185799
2024-04-18T09:42:24.704Z,51.185802
2024-04-18T09:43:24.654Z,51.185795
2024-04-18T09:44:27.085Z,51.185837
2024-04-18T09:45:24.683Z,51.185810
2024-04-18T09:46:24.653Z,51.185856
2024-04-18T09:47:24.615Z,51.185867
2024-04-18T09:48:25.046Z,51.185879
2024-04-18T09:49:24.842Z,51.185806
2024-04-18T09:50:24.606Z,51.185795
2024-04-18T09:51:25.334Z,51.185814
2024-04-18T09:52:24.591Z,51.185799
2024-04-18T09:53:24.611Z,51.185772
2024-04-18T09:54:24.674Z,51.185776
2024-04-18T09:55:26.030Z,51.185802
2024-04-18T09:56:24.555Z,51.185783
2024-04-18T09:57:24.606Z,51.185810
2024-04-18T09:58:24.537Z,51.185730
2024-04-18T09:59:24.530Z,51.185772
2024-04-18T10:00:24.608Z,51.185760
2024-04-18T10:01:24.549Z,51.185780
2024-04-18T10:02:24.618Z,51.185802
2024-04-18T10:03:24.611Z,51.185860
2024-04-18T10:04:24.530Z,51.185806
2024-04-18T10:05:24.482Z,51.185810
2024-04-18T10:06:24.508Z,51.185772
2024-04-18T10:07:24.491Z,51.185883
2024-04-18T10:08:24.490Z,51.185890
2024-04-18T10:09:24.498Z,51.185799
2024-04-18T10:10:24.472Z,51.185780
2024-04-18T10:11:24.644Z,51.185699
2024-04-18T10:12:24.455Z,51.185711
2024-04-18T10:13:26.243Z,51.185677
2024-04-18T10:14:24.497Z,51.185707
2024-04-18T10:15:24.527Z,51.185833
2024-04-18T10:16:25.039Z,51.185822
2024-04-18T10:17:24.584Z,51.185829
2024-04-18T10:18:24.510Z,51.185806
2024-04-18T10:19:24.539Z,51.185757
2024-04-18T10:20:24.413Z,51.185814
2024-04-18T10:21:33.038Z,51.185760
2024-04-18T10:23:24.389Z,51.185841
2024-04-18T10:24:24.439Z,51.185905
2024-04-18T10:25:24.405Z,51.185749
2024-04-18T10:26:24.359Z,51.185852
2024-04-18T10:27:24.527Z,51.185780
2024-04-18T10:28:24.426Z,51.185802
2024-04-18T10:29:24.323Z,51.185791
2024-04-18T10:30:24.406Z,51.185741
2024-04-18T10:31:24.350Z,51.185921
2024-04-18T10:32:24.317Z,51.185802
2024-04-18T10:33:24.384Z,51.185970
2024-04-18T10:34:24.310Z,51.185825
2024-04-18T10:35:24.374Z,51.185783
2024-04-18T10:36:24.607Z,51.185841
2024-04-18T10:37:24.419Z,51.185787
2024-04-18T10:38:24.467Z,51.185921
2024-04-18T10:39:24.506Z,51.185776
2024-04-18T10:40:24.357Z,51.185764
2024-04-18T10:41:24.282Z,51.185780
2024-04-18T10:42:24.608Z,51.185932
2024-04-18T10:43:24.239Z,51.185894
2024-04-18T10:44:24.224Z,51.185928
2024-04-18T10:45:24.284Z,51.185913
2024-04-18T10:46:24.214Z,51.185787
2024-04-18T10:47:24.278Z,51.185848
2024-04-18T10:48:24.527Z,51.185799
2024-04-18T10:49:24.279Z,51.185703
2024-04-18T10:50:24.201Z,51.185776
2024-04-18T10:51:24.263Z,51.185558
2024-04-18T10:52:24.175Z,51.185436
2024-04-18T10:53:24.220Z,51.185543
2024-04-18T10:54:24.178Z,51.185661
2024-04-18T10:55:24.233Z,51.185604
2024-04-18T10:56:24.164Z,51.185719
2024-04-18T10:57:24.166Z,51.185799
2024-04-18T10:58:24.133Z,51.185646
2024-04-18T10:59:24.159Z,51.185680
2024-04-18T11:00:24.167Z,51.185650
2024-04-18T11:01:24.154Z,51.185738
2024-04-18T11:02:24.191Z,51.185757
2024-04-18T11:03:24.147Z,51.185764
2024-04-18T11:04:24.458Z,51.185863
2024-04-18T11:05:24.083Z,51.185760
2024-04-18T11:06:24.092Z,51.185730
2024-04-18T11:07:24.067Z,51.185776
2024-04-18T11:08:24.109Z,51.185764
2024-04-18T11:09:24.087Z,51.185753
2024-04-18T11:10:24.041Z,51.185753
2024-04-18T11:11:24.075Z,51.185734
2024-04-18T11:12:24.052Z,51.185795
2024-04-18T11:13:24.014Z,51.185787
2024-04-18T11:14:24.012Z,51.185795
2024-04-18T11:15:24.104Z,51.185799
2024-04-18T11:16:24.043Z,51.185764
2024-04-18T11:17:23.999Z,51.185734
2024-04-18T11:18:24.322Z,51.185692
2024-04-18T11:19:24.151Z,51.185776
2024-04-18T11:20:23.974Z,51.185791
2024-04-18T11:21:24.031Z,51.185795
2024-04-18T11:22:23.975Z,51.185802
2024-04-18T11:23:32.625Z,51.185791
2024-04-18T11:24:25.030Z,51.185768
2024-04-18T11:25:23.935Z,51.185768
2024-04-18T11:26:23.926Z,51.185772